Aviation Digital Data Service (ADDS)

Output produced by METARs form (0306 UTC 16 August 2018)
found at http://www.aviationweather.gov/adds/metars/
 
LMML 160245Z 31012KT 9999 FEW020 25/19 Q1012 NOSIG
TAF LMML 152300Z 1600/1624 30014KT 9999 SCT018 
     PROB40 
     TEMPO 1600/1610 8000 SHRA BKN015TCU 
     PROB30 
     TEMPO 1600/1610 VRB17G27KT 5000 TSRA BKN015CB